createdAt,value
2017-10-15T00:01:30.646Z,15.44
2017-10-15T00:04:05.874Z,15.43
2017-10-15T00:06:42.523Z,15.40
2017-10-15T00:09:18.421Z,15.36
2017-10-15T00:11:53.315Z,15.34
2017-10-15T00:14:30.445Z,15.38
2017-10-15T00:17:04.924Z,15.39
2017-10-15T00:19:41.428Z,15.41
2017-10-15T00:22:16.712Z,15.41
2017-10-15T00:24:51.598Z,15.37
2017-10-15T00:27:26.798Z,15.35
2017-10-15T00:30:02.282Z,15.34
2017-10-15T00:32:37.574Z,15.36
2017-10-15T00:35:13.171Z,15.29
2017-10-15T00:37:47.611Z,15.29
2017-10-15T00:40:23.038Z,15.30
2017-10-15T00:42:58.503Z,15.30
2017-10-15T00:45:33.958Z,15.30
2017-10-15T00:48:09.314Z,15.28
2017-10-15T00:50:44.000Z,15.27
2017-10-15T00:53:19.617Z,15.24
2017-10-15T00:55:57.545Z,15.19
2017-10-15T00:58:33.016Z,15.12
2017-10-15T01:01:07.582Z,15.09
2017-10-15T01:03:42.316Z,15.09
2017-10-15T01:06:17.176Z,15.06
2017-10-15T01:08:52.575Z,14.97
2017-10-15T01:11:28.186Z,14.95
2017-10-15T01:14:02.865Z,14.96
2017-10-15T01:16:39.459Z,14.94
2017-10-15T01:19:14.066Z,14.84
2017-10-15T01:21:52.011Z,14.82
2017-10-15T01:24:26.862Z,14.79
2017-10-15T01:27:02.031Z,14.80
2017-10-15T01:29:36.923Z,14.78
2017-10-15T01:32:14.085Z,14.76
2017-10-15T01:34:49.434Z,14.66
2017-10-15T01:37:24.313Z,14.63
2017-10-15T01:39:59.692Z,14.57
2017-10-15T01:42:34.726Z,14.63
2017-10-15T01:45:10.174Z,14.60
2017-10-15T01:47:46.019Z,14.50
2017-10-15T01:50:20.959Z,14.41
2017-10-15T01:52:55.713Z,14.39
2017-10-15T01:55:30.434Z,14.36
2017-10-15T01:58:05.864Z,14.39
2017-10-15T02:00:41.266Z,14.38
2017-10-15T02:03:16.922Z,14.31
2017-10-15T02:05:52.143Z,14.22
2017-10-15T02:08:27.644Z,13.91
2017-10-15T02:11:02.250Z,13.80
2017-10-15T02:13:37.810Z,13.83
2017-10-15T02:16:12.466Z,13.87
2017-10-15T02:18:47.825Z,14.01
2017-10-15T02:21:22.517Z,14.08
2017-10-15T02:23:58.253Z,14.11
2017-10-15T02:26:32.716Z,14.17
2017-10-15T02:29:07.802Z,13.90
2017-10-15T02:31:43.585Z,13.62
2017-10-15T02:34:19.790Z,13.55
2017-10-15T02:36:54.475Z,13.55
2017-10-15T02:39:29.191Z,13.52
2017-10-15T02:42:04.560Z,13.75
2017-10-15T02:44:39.205Z,13.86
2017-10-15T02:47:13.631Z,13.91
2017-10-15T02:49:48.308Z,14.03
2017-10-15T02:52:22.884Z,13.92
2017-10-15T02:54:57.774Z,13.90
2017-10-15T02:57:33.079Z,13.74
2017-10-15T03:00:07.999Z,13.90
2017-10-15T03:02:43.328Z,14.07
2017-10-15T03:05:21.222Z,14.30
2017-10-15T03:07:56.420Z,14.52
2017-10-15T03:10:32.702Z,14.69
2017-10-15T03:13:07.465Z,14.83
2017-10-15T03:15:42.382Z,14.90
2017-10-15T03:18:16.932Z,14.98
2017-10-15T03:20:52.934Z,15.04
2017-10-15T03:23:27.616Z,15.14
2017-10-15T03:26:02.169Z,15.23
2017-10-15T03:28:36.701Z,15.26
2017-10-15T03:31:13.701Z,15.30
2017-10-15T03:33:48.238Z,15.29
2017-10-15T03:36:22.843Z,15.43
2017-10-15T03:38:57.726Z,15.40
2017-10-15T03:41:33.195Z,15.41
2017-10-15T03:44:07.891Z,15.41
2017-10-15T03:46:44.077Z,15.47
2017-10-15T03:49:19.009Z,15.33
2017-10-15T03:51:54.422Z,15.30
2017-10-15T03:54:29.271Z,15.23
2017-10-15T03:57:04.618Z,15.09
2017-10-15T03:59:39.561Z,14.84
2017-10-15T04:02:06.330Z,14.77
2017-10-15T04:04:41.768Z,14.80
2017-10-15T04:07:16.700Z,14.98
2017-10-15T04:09:51.309Z,14.85
2017-10-15T04:12:27.539Z,14.77
2017-10-15T04:15:02.569Z,14.66
2017-10-15T04:17:38.979Z,14.57
2017-10-15T04:20:13.594Z,14.54
2017-10-15T04:22:49.866Z,14.52
2017-10-15T04:25:24.553Z,14.55
2017-10-15T04:28:00.261Z,14.76
2017-10-15T04:30:35.560Z,14.80
2017-10-15T04:33:11.057Z,14.83
2017-10-15T04:35:45.724Z,14.85
2017-10-15T04:38:23.686Z,14.84
2017-10-15T04:40:58.882Z,14.87
2017-10-15T04:43:35.991Z,14.92
2017-10-15T04:46:10.692Z,14.89
2017-10-15T04:48:47.190Z,14.93
2017-10-15T04:51:21.776Z,15.00
2017-10-15T04:53:56.367Z,14.72
2017-10-15T04:56:31.843Z,14.94
2017-10-15T04:59:06.371Z,15.18
2017-10-15T05:01:40.796Z,15.30
2017-10-15T05:04:15.392Z,15.29
2017-10-15T05:06:50.777Z,15.00
2017-10-15T05:09:27.857Z,15.02
2017-10-15T05:12:02.774Z,14.66
2017-10-15T05:14:37.377Z,14.52
2017-10-15T05:17:13.847Z,14.35
2017-10-15T05:19:49.165Z,14.13
2017-10-15T05:22:23.639Z,14.15
2017-10-15T05:24:58.160Z,14.26
2017-10-15T05:27:33.681Z,14.20
2017-10-15T05:30:08.171Z,14.30
2017-10-15T05:32:43.596Z,14.32
2017-10-15T05:35:19.145Z,14.43
2017-10-15T05:37:53.710Z,14.52
2017-10-15T05:40:28.275Z,14.63
2017-10-15T05:43:02.845Z,14.74
2017-10-15T05:45:38.470Z,14.77
2017-10-15T05:48:13.857Z,14.81
2017-10-15T05:50:50.897Z,14.98
2017-10-15T05:53:25.695Z,14.83
2017-10-15T05:56:00.324Z,15.03
2017-10-15T05:58:37.492Z,15.09
2017-10-15T06:01:05.252Z,14.90
2017-10-15T06:03:40.488Z,14.80
2017-10-15T06:06:15.604Z,15.02
2017-10-15T06:08:51.047Z,14.88
2017-10-15T06:11:26.658Z,15.05
2017-10-15T06:14:02.092Z,14.74
2017-10-15T06:16:37.380Z,15.02
2017-10-15T06:19:12.691Z,15.06
2017-10-15T06:21:50.192Z,14.96
2017-10-15T06:24:25.610Z,14.94
2017-10-15T06:27:01.281Z,15.20
2017-10-15T06:29:36.676Z,15.14
2017-10-15T06:32:12.100Z,15.35
2017-10-15T06:34:46.573Z,15.42
2017-10-15T06:37:21.262Z,15.59
2017-10-15T06:39:56.746Z,15.61
2017-10-15T06:42:32.482Z,15.52
2017-10-15T06:45:07.065Z,15.52
2017-10-15T06:47:41.701Z,15.74
2017-10-15T06:50:18.040Z,16.06
2017-10-15T06:52:55.942Z,16.04
2017-10-15T06:55:30.864Z,16.21
2017-10-15T06:58:08.549Z,16.62
2017-10-15T07:00:43.173Z,16.75
2017-10-15T07:03:21.390Z,16.98
2017-10-15T07:05:56.339Z,17.44
2017-10-15T07:08:31.839Z,17.52
2017-10-15T07:11:07.319Z,17.62
2017-10-15T07:13:43.001Z,17.93
2017-10-15T07:16:18.419Z,18.10
2017-10-15T07:18:53.953Z,18.38
2017-10-15T07:21:29.439Z,18.62
2017-10-15T07:24:05.792Z,18.34
2017-10-15T07:26:40.472Z,18.27
2017-10-15T07:29:16.452Z,18.29
2017-10-15T07:31:50.978Z,18.58
2017-10-15T07:34:25.753Z,18.64
2017-10-15T07:37:01.067Z,18.80
2017-10-15T07:39:36.928Z,18.88
2017-10-15T07:42:12.278Z,18.28
2017-10-15T07:44:48.531Z,18.40
2017-10-15T07:47:23.446Z,18.36
2017-10-15T07:49:59.203Z,18.34
2017-10-15T07:52:34.310Z,18.81
2017-10-15T07:55:09.093Z,18.94
2017-10-15T07:57:44.598Z,19.21
2017-10-15T08:00:21.774Z,19.51
2017-10-15T08:02:48.517Z,19.65
2017-10-15T08:05:24.205Z,19.74
2017-10-15T08:07:58.886Z,19.62
2017-10-15T08:10:38.528Z,19.50
2017-10-15T08:13:13.735Z,19.41
2017-10-15T08:15:48.258Z,19.35
2017-10-15T08:18:22.946Z,19.30
2017-10-15T08:20:58.373Z,19.23
2017-10-15T08:23:33.014Z,19.03
2017-10-15T08:26:08.560Z,18.94
2017-10-15T08:28:43.796Z,18.83
2017-10-15T08:31:19.340Z,18.64
2017-10-15T08:33:54.724Z,18.54
2017-10-15T08:36:29.300Z,18.67
2017-10-15T08:39:04.906Z,18.68
2017-10-15T08:41:41.128Z,18.69
2017-10-15T08:44:15.733Z,18.68
2017-10-15T08:46:51.109Z,18.72
2017-10-15T08:49:25.899Z,18.69
2017-10-15T08:52:01.097Z,18.61
2017-10-15T08:54:36.457Z,18.62
2017-10-15T08:57:11.246Z,18.65
2017-10-15T08:59:46.706Z,18.69
2017-10-15T09:02:24.566Z,18.71
2017-10-15T09:04:59.580Z,18.67
2017-10-15T09:07:35.902Z,18.72
2017-10-15T09:10:11.053Z,18.80
2017-10-15T09:12:45.870Z,18.80
2017-10-15T09:15:21.106Z,18.91
2017-10-15T09:18:00.027Z,19.01
2017-10-15T09:20:35.138Z,19.17
2017-10-15T09:23:10.673Z,19.31
2017-10-15T09:25:45.946Z,19.35
2017-10-15T09:28:20.640Z,19.50
2017-10-15T09:30:56.142Z,19.59
2017-10-15T09:33:30.807Z,19.73
2017-10-15T09:36:06.218Z,19.96
2017-10-15T09:38:41.095Z,20.04
2017-10-15T09:41:16.536Z,20.09
2017-10-15T09:43:51.244Z,20.23
2017-10-15T09:46:28.873Z,20.35
2017-10-15T09:49:04.325Z,20.44
2017-10-15T09:51:39.032Z,20.61
2017-10-15T09:54:14.623Z,20.68
2017-10-15T09:56:49.265Z,20.75
2017-10-15T09:59:24.990Z,20.79
2017-10-15T10:05:04.868Z,20.99
2017-10-15T10:07:39.573Z,21.08
2017-10-15T10:10:17.184Z,21.09
2017-10-15T10:12:52.465Z,21.24
2017-10-15T10:15:27.232Z,21.25
2017-10-15T10:18:01.687Z,21.36
2017-10-15T10:20:38.223Z,21.52
2017-10-15T10:23:12.886Z,21.67
2017-10-15T10:25:49.629Z,21.81
2017-10-15T10:28:24.578Z,22.00
2017-10-15T10:30:59.971Z,22.12
2017-10-15T10:33:34.770Z,22.21
2017-10-15T10:36:09.330Z,22.24
2017-10-15T10:38:44.034Z,22.38
2017-10-15T10:41:21.062Z,22.46
2017-10-15T10:43:55.885Z,22.40
2017-10-15T10:46:32.112Z,22.43
2017-10-15T10:49:06.772Z,22.53
2017-10-15T10:51:41.348Z,22.62
2017-10-15T10:54:15.959Z,22.78
2017-10-15T10:56:52.610Z,22.87
2017-10-15T10:59:33.521Z,22.96
2017-10-15T11:02:08.266Z,23.19
2017-10-15T11:04:42.816Z,23.30
2017-10-15T11:07:17.450Z,23.31
2017-10-15T11:09:52.067Z,23.30
2017-10-15T11:12:28.005Z,23.42
2017-10-15T11:15:03.221Z,23.39
2017-10-15T11:17:39.546Z,23.36
2017-10-15T11:20:15.055Z,23.31
2017-10-15T11:22:50.347Z,23.28
2017-10-15T11:25:25.229Z,23.24
2017-10-15T11:27:59.793Z,23.34
2017-10-15T11:30:34.559Z,23.24
2017-10-15T11:33:09.138Z,23.34
2017-10-15T11:35:43.619Z,23.33
2017-10-15T11:38:19.137Z,23.36
2017-10-15T11:40:53.887Z,23.45
2017-10-15T11:43:29.402Z,23.54
2017-10-15T11:46:03.855Z,23.53
2017-10-15T11:48:39.425Z,23.58
2017-10-15T11:51:14.857Z,23.63
2017-10-15T11:53:51.369Z,23.71
2017-10-15T11:56:25.942Z,23.67
2017-10-15T11:59:01.400Z,23.72
2017-10-15T12:01:28.144Z,23.65
2017-10-15T12:04:03.506Z,23.57
2017-10-15T12:06:38.125Z,23.54
2017-10-15T12:09:16.027Z,23.51
2017-10-15T12:11:50.669Z,23.67
2017-10-15T12:14:26.201Z,23.67
2017-10-15T12:17:03.452Z,23.61
2017-10-15T12:19:38.469Z,23.64
2017-10-15T12:22:13.715Z,23.72
2017-10-15T12:24:48.314Z,23.73
2017-10-15T12:27:22.863Z,23.76
2017-10-15T12:29:58.986Z,23.84
2017-10-15T12:32:33.889Z,23.84
2017-10-15T12:35:08.647Z,23.79
2017-10-15T12:37:44.128Z,23.87
2017-10-15T12:40:19.535Z,23.96
2017-10-15T12:42:54.033Z,24.02
2017-10-15T12:45:28.762Z,24.13
2017-10-15T12:48:04.007Z,24.06
2017-10-15T12:50:41.318Z,24.20
2017-10-15T12:53:15.888Z,24.24
2017-10-15T12:55:51.383Z,24.36
2017-10-15T12:58:26.893Z,24.28
2017-10-15T13:01:04.739Z,24.26
2017-10-15T13:03:39.805Z,23.95
2017-10-15T13:06:14.504Z,23.90
2017-10-15T13:08:49.975Z,23.87
2017-10-15T13:11:25.321Z,23.79
2017-10-15T13:14:00.760Z,23.68
2017-10-15T13:16:36.305Z,23.45
2017-10-15T13:19:12.739Z,23.46
2017-10-15T13:21:49.929Z,23.34
2017-10-15T13:24:24.600Z,23.40
2017-10-15T13:26:59.374Z,23.35
2017-10-15T13:29:34.769Z,23.35
2017-10-15T13:32:14.370Z,23.37
2017-10-15T13:34:50.614Z,23.45
2017-10-15T13:37:26.152Z,23.36
2017-10-15T13:40:00.746Z,23.27
2017-10-15T13:42:37.874Z,23.15
2017-10-15T13:45:12.682Z,23.08
2017-10-15T13:47:47.192Z,23.06
2017-10-15T13:50:21.736Z,23.03
2017-10-15T13:52:57.133Z,22.86
2017-10-15T13:55:31.739Z,22.84
2017-10-15T13:58:07.375Z,22.70
2017-10-15T14:00:42.847Z,22.68
2017-10-15T14:03:11.412Z,22.59
2017-10-15T14:05:46.818Z,22.53
2017-10-15T14:08:22.458Z,22.41
2017-10-15T14:10:57.691Z,22.42
2017-10-15T14:13:32.367Z,22.38
2017-10-15T14:16:07.598Z,22.26
2017-10-15T14:18:48.881Z,22.27
2017-10-15T14:21:23.755Z,22.25
2017-10-15T14:23:59.290Z,22.18
2017-10-15T14:26:34.589Z,22.14
2017-10-15T14:29:09.226Z,22.11
2017-10-15T14:31:44.667Z,22.00
2017-10-15T14:34:20.170Z,21.91
2017-10-15T14:36:55.533Z,21.83
2017-10-15T14:39:34.325Z,21.71
2017-10-15T14:42:09.509Z,21.69
2017-10-15T14:44:46.513Z,21.59
2017-10-15T14:47:21.644Z,21.57
2017-10-15T14:49:57.011Z,21.53
2017-10-15T14:52:31.754Z,21.49
2017-10-15T14:55:10.632Z,21.45
2017-10-15T14:57:45.763Z,21.40
2017-10-15T15:00:21.295Z,21.37
2017-10-15T15:02:56.677Z,21.25
2017-10-15T15:05:31.439Z,21.20
2017-10-15T15:08:05.958Z,21.13
2017-10-15T15:10:41.616Z,21.13
2017-10-15T15:13:16.686Z,21.07
2017-10-15T15:15:51.364Z,21.06
2017-10-15T15:18:25.818Z,21.01
2017-10-15T15:21:02.437Z,20.95
2017-10-15T15:23:36.938Z,20.95
2017-10-15T15:26:13.342Z,20.86
2017-10-15T15:28:47.907Z,20.82
2017-10-15T15:31:23.366Z,20.73
2017-10-15T15:33:58.834Z,20.70
2017-10-15T15:36:33.546Z,20.65
2017-10-15T15:39:08.784Z,20.65
2017-10-15T15:41:44.259Z,20.56
2017-10-15T15:44:18.922Z,20.55
2017-10-15T15:46:54.333Z,20.55
2017-10-15T15:49:29.737Z,20.49
2017-10-15T15:52:05.190Z,20.49
2017-10-15T15:54:40.415Z,20.45
2017-10-15T15:57:17.723Z,20.41
2017-10-15T15:59:52.345Z,20.39
2017-10-15T16:02:19.143Z,20.36
2017-10-15T16:04:54.102Z,20.30
2017-10-15T16:07:28.692Z,20.28
2017-10-15T16:10:04.297Z,20.25
2017-10-15T16:12:44.422Z,20.27
2017-10-15T16:15:19.240Z,20.25
2017-10-15T16:17:59.142Z,20.24
2017-10-15T16:20:35.286Z,20.23
2017-10-15T16:23:12.882Z,20.14
2017-10-15T16:25:47.785Z,20.19
2017-10-15T16:28:24.177Z,20.18
2017-10-15T16:30:58.910Z,20.15
2017-10-15T16:33:37.931Z,20.06
2017-10-15T16:36:13.859Z,19.98
2017-10-15T16:38:48.579Z,19.95
2017-10-15T16:41:23.902Z,19.94
2017-10-15T16:43:59.677Z,19.93
2017-10-15T16:46:35.004Z,19.87
2017-10-15T16:49:12.234Z,19.91
2017-10-15T16:51:49.770Z,20.00
2017-10-15T16:54:27.239Z,19.99
2017-10-15T16:57:04.670Z,20.03
2017-10-15T16:59:40.194Z,19.96
2017-10-15T17:02:15.189Z,19.87
2017-10-15T17:04:52.612Z,19.85
2017-10-15T17:07:28.223Z,19.84
2017-10-15T17:10:05.477Z,19.78
2017-10-15T17:12:41.109Z,19.69
2017-10-15T17:15:18.148Z,19.70
2017-10-15T17:17:54.246Z,19.75
2017-10-15T17:20:21.151Z,19.79
2017-10-15T17:22:56.172Z,19.85
2017-10-15T17:25:33.060Z,19.91
2017-10-15T17:28:08.337Z,19.89
2017-10-15T17:30:44.678Z,19.90
2017-10-15T17:33:21.532Z,19.88
2017-10-15T17:35:56.566Z,19.89
2017-10-15T17:38:31.918Z,19.87
2017-10-15T17:41:07.569Z,19.88
2017-10-15T17:43:42.824Z,19.92
2017-10-15T17:46:18.236Z,19.87
2017-10-15T17:48:52.873Z,19.86
2017-10-15T17:51:28.637Z,19.78
2017-10-15T17:54:04.026Z,19.81
2017-10-15T17:56:46.116Z,19.75
2017-10-15T17:59:21.328Z,19.71
2017-10-15T18:01:49.221Z,19.69
2017-10-15T18:04:26.176Z,19.63
2017-10-15T18:07:02.884Z,19.57
2017-10-15T18:09:37.558Z,19.47
2017-10-15T18:12:13.217Z,19.29
2017-10-15T18:14:47.874Z,19.26
2017-10-15T18:17:23.400Z,19.15
2017-10-15T18:19:58.942Z,18.99
2017-10-15T18:22:38.813Z,18.98
2017-10-15T18:25:14.183Z,18.94
2017-10-15T18:27:48.912Z,18.91
2017-10-15T18:30:24.362Z,18.98
2017-10-15T18:32:51.147Z,18.93
2017-10-15T18:35:26.443Z,18.91
2017-10-15T18:38:06.453Z,18.99
2017-10-15T18:40:43.953Z,19.01
2017-10-15T18:46:00.640Z,19.07
2017-10-15T18:48:35.479Z,19.08
2017-10-15T18:51:11.258Z,19.04
2017-10-15T18:53:45.989Z,19.07
2017-10-15T18:56:12.718Z,19.09
2017-10-15T18:58:49.210Z,19.13
2017-10-15T19:01:23.956Z,19.06
2017-10-15T19:03:58.617Z,19.03
2017-10-15T19:06:34.126Z,19.07
2017-10-15T19:09:13.327Z,19.05
2017-10-15T19:11:48.159Z,18.99
2017-10-15T19:14:25.585Z,18.95
2017-10-15T19:17:01.391Z,18.87
2017-10-15T19:19:39.933Z,18.77
2017-10-15T19:22:14.951Z,18.81
2017-10-15T19:24:49.585Z,18.74
2017-10-15T19:27:24.139Z,18.70
2017-10-15T19:29:58.998Z,18.62
2017-10-15T19:32:25.862Z,18.39
2017-10-15T19:35:01.985Z,18.33
2017-10-15T19:37:36.688Z,18.31
2017-10-15T19:40:13.413Z,18.25
2017-10-15T19:42:48.152Z,18.19
2017-10-15T19:45:23.506Z,18.19
2017-10-15T19:47:57.973Z,18.10
2017-10-15T19:50:34.923Z,18.16
2017-10-15T19:53:10.123Z,18.18
2017-10-15T19:55:46.557Z,18.09
2017-10-15T19:58:21.148Z,18.09
2017-10-15T20:00:56.706Z,18.20
2017-10-15T20:03:23.533Z,18.20
2017-10-15T20:05:59.291Z,18.23
2017-10-15T20:08:34.620Z,18.16
2017-10-15T20:11:01.451Z,18.11
2017-10-15T20:13:36.935Z,18.03
2017-10-15T20:16:12.571Z,18.12
2017-10-15T20:18:47.895Z,17.92
2017-10-15T20:21:25.415Z,17.76
2017-10-15T20:24:00.135Z,17.66
2017-10-15T20:26:38.364Z,17.61
2017-10-15T20:29:12.985Z,17.57
2017-10-15T20:31:49.254Z,17.44
2017-10-15T20:34:24.509Z,17.35
2017-10-15T20:36:59.894Z,17.10
2017-10-15T20:39:35.303Z,17.01
2017-10-15T20:42:10.894Z,16.95
2017-10-15T20:44:46.337Z,16.92
2017-10-15T20:47:21.198Z,16.87
2017-10-15T20:49:56.349Z,16.82
2017-10-15T20:52:31.783Z,16.75
2017-10-15T20:55:06.442Z,16.78
2017-10-15T20:57:42.790Z,16.78
2017-10-15T21:00:19.131Z,16.62
2017-10-15T21:02:55.464Z,16.59
2017-10-15T21:05:30.070Z,16.60
2017-10-15T21:08:05.645Z,16.62
2017-10-15T21:10:40.295Z,16.64
2017-10-15T21:13:15.817Z,16.77
2017-10-15T21:15:51.189Z,16.76
2017-10-15T21:18:25.762Z,16.83
2017-10-15T21:21:01.320Z,16.93
2017-10-15T21:23:37.709Z,16.95
2017-10-15T21:26:13.207Z,17.08
2017-10-15T21:28:48.787Z,17.14
2017-10-15T21:31:24.172Z,17.21
2017-10-15T21:33:59.684Z,17.27
2017-10-15T21:36:35.103Z,17.27
2017-10-15T21:39:10.628Z,17.30
2017-10-15T21:41:46.059Z,17.24
2017-10-15T21:44:20.804Z,17.25
2017-10-15T21:46:56.099Z,17.26
2017-10-15T21:49:32.448Z,17.18
2017-10-15T21:52:08.086Z,17.16
2017-10-15T21:54:44.251Z,17.14
2017-10-15T21:57:20.853Z,17.13
2017-10-15T21:59:57.757Z,17.08
2017-10-15T22:02:24.493Z,17.03
2017-10-15T22:04:59.141Z,16.98
2017-10-15T22:07:34.113Z,17.01
2017-10-15T22:10:09.098Z,17.03
2017-10-15T22:12:43.583Z,17.04
2017-10-15T22:15:18.565Z,17.05
2017-10-15T22:17:53.462Z,17.10
2017-10-15T22:23:44.800Z,17.25
2017-10-15T22:26:20.398Z,17.37
2017-10-15T22:28:55.788Z,17.44
2017-10-15T22:31:32.214Z,17.50
2017-10-15T22:34:06.890Z,17.54
2017-10-15T22:36:42.467Z,17.56
2017-10-15T22:39:17.217Z,17.61
2017-10-15T22:41:51.824Z,17.61
2017-10-15T22:44:26.330Z,17.58
2017-10-15T22:47:02.002Z,17.67
2017-10-15T22:49:37.449Z,17.70
2017-10-15T22:52:12.209Z,17.68
2017-10-15T22:54:47.667Z,17.62
2017-10-15T22:57:22.134Z,17.67
2017-10-15T22:59:57.791Z,17.65
2017-10-15T23:02:34.902Z,17.59
2017-10-15T23:05:09.832Z,17.57
2017-10-15T23:07:48.247Z,17.57
2017-10-15T23:10:23.395Z,17.56
2017-10-15T23:12:59.853Z,17.51
2017-10-15T23:15:35.145Z,17.50
2017-10-15T23:18:12.371Z,17.44
2017-10-15T23:20:47.526Z,17.42
2017-10-15T23:23:22.536Z,17.40
2017-10-15T23:25:57.802Z,17.35
2017-10-15T23:28:34.576Z,17.29
2017-10-15T23:31:11.270Z,17.26
2017-10-15T23:33:47.601Z,17.24
2017-10-15T23:36:22.314Z,17.19
2017-10-15T23:38:59.213Z,17.16
2017-10-15T23:41:33.920Z,17.12
2017-10-15T23:44:08.663Z,17.07
2017-10-15T23:46:43.283Z,17.05
2017-10-15T23:49:19.487Z,16.98
2017-10-15T23:51:54.010Z,17.02
2017-10-15T23:54:30.427Z,16.95
2017-10-15T23:57:05.074Z,16.95
2017-10-15T23:59:42.732Z,16.95
